Time;durP1;ratioP1;P1;durP2;ratioP2;P2;SDS_P1;SDS_P2;PMS_P1;PMS_P2;Temp;Humidity;BMP_temperature;BMP_pressure;BME280_temperature;BME280_humidity;BME280_pressure;Samples;Min_cycle;Max_cycle;Signal;HPM_P1;HPM_P2
2021/07/08 00:01:06;;;;;;;3.00;2.77;;;19.90;99.90;;;;;;5076646;28;20537;-74
2021/07/08 00:03:33;;;;;;;6.23;2.60;;;19.80;99.90;;;;;;5077263;28;20842;-74
2021/07/08 00:06:00;;;;;;;2.60;2.50;;;19.90;99.90;;;;;;5076343;28;20481;-74
2021/07/08 00:08:28;;;;;;;2.37;2.27;;;19.90;99.90;;;;;;5076909;28;20470;-74
2021/07/08 00:10:56;;;;;;;2.77;2.57;;;19.90;99.90;;;;;;5076379;28;20452;-74
2021/07/08 00:13:25;;;;;;;4.33;2.40;;;19.90;99.90;;;;;;5076426;28;20990;-74
2021/07/08 00:15:54;;;;;;;2.43;2.30;;;19.90;99.90;;;;;;5076933;28;20526;-74
2021/07/08 00:18:23;;;;;;;2.87;2.33;;;19.90;99.90;;;;;;5076594;28;20887;-74
2021/07/08 00:20:50;;;;;;;4.47;2.50;;;19.80;99.90;;;;;;5076434;28;20469;-74
2021/07/08 00:23:18;;;;;;;2.90;2.40;;;19.70;99.90;;;;;;5076651;28;20542;-74
2021/07/08 00:25:47;;;;;;;2.47;2.37;;;19.70;99.90;;;;;;5076648;28;20470;-75
2021/07/08 00:28:15;;;;;;;2.40;2.30;;;19.70;99.90;;;;;;5076672;28;20550;-74
2021/07/08 00:30:44;;;;;;;2.80;2.63;;;19.60;99.90;;;;;;5074485;28;20458;-74
2021/07/08 00:33:12;;;;;;;3.00;2.80;;;19.60;99.90;;;;;;5076384;28;20450;-73
2021/07/08 00:35:40;;;;;;;2.70;2.50;;;19.60;99.90;;;;;;5076235;28;20445;-74
2021/07/08 00:38:07;;;;;;;4.10;2.60;;;19.60;99.90;;;;;;5075963;28;20466;-74
2021/07/08 00:40:34;;;;;;;3.00;2.70;;;19.70;99.90;;;;;;5076036;28;20534;-74
2021/07/08 00:43:01;;;;;;;2.50;2.40;;;19.70;99.90;;;;;;5076439;28;20527;-74
2021/07/08 00:45:28;;;;;;;2.63;2.47;;;19.70;99.90;;;;;;5076059;28;20488;-74
2021/07/08 00:47:56;;;;;;;2.70;2.47;;;19.80;99.90;;;;;;5076222;28;20553;-73
2021/07/08 00:50:29;;;;;;;2.63;2.50;;;19.80;99.90;;;;;;5075852;28;20454;-74
2021/07/08 00:52:56;;;;;;;11.90;3.60;;;19.70;99.90;;;;;;5076278;28;20554;-74
2021/07/08 00:55:23;;;;;;;2.80;2.60;;;19.50;99.90;;;;;;5076263;28;20433;-74
2021/07/08 00:57:54;;;;;;;3.20;3.00;;;19.50;99.90;;;;;;5075874;28;20470;-74
2021/07/08 01:00:24;;;;;;;2.80;2.60;;;19.50;99.90;;;;;;5075614;28;20452;-74
2021/07/08 01:02:51;;;;;;;3.03;2.83;;;19.50;99.90;;;;;;5075943;28;20447;-73
2021/07/08 01:05:19;;;;;;;3.33;2.63;;;19.50;99.90;;;;;;5075811;28;20956;-74
2021/07/08 01:07:47;;;;;;;3.47;3.17;;;19.50;99.90;;;;;;5075941;28;20498;-74
2021/07/08 01:10:15;;;;;;;3.60;3.30;;;19.50;99.90;;;;;;5076091;28;20545;-74
2021/07/08 01:12:42;;;;;;;3.20;3.00;;;19.50;99.90;;;;;;5075601;28;20465;-74
2021/07/08 01:15:11;;;;;;;3.63;3.33;;;19.50;99.90;;;;;;5075688;28;20795;-74
2021/07/08 01:17:40;;;;;;;3.83;3.53;;;19.40;99.90;;;;;;5075609;28;20488;-74
2021/07/08 01:20:09;;;;;;;3.87;3.50;;;19.20;99.90;;;;;;5075746;28;20445;-74
2021/07/08 01:22:39;;;;;;;3.87;3.47;;;19.20;99.90;;;;;;5075666;28;20482;-74
2021/07/08 01:25:08;;;;;;;3.57;3.30;;;19.30;99.90;;;;;;5075041;28;20461;-73
2021/07/08 01:27:37;;;;;;;3.53;3.23;;;19.40;99.90;;;;;;5075278;28;20547;-73
2021/07/08 01:30:06;;;;;;;3.70;3.40;;;19.40;99.90;;;;;;5074710;28;20454;-73
2021/07/08 01:32:33;;;;;;;3.90;3.50;;;19.40;99.90;;;;;;5075305;28;20448;-73
2021/07/08 01:34:59;;;;;;;3.97;3.60;;;19.40;99.90;;;;;;5075284;28;20445;-73
2021/07/08 01:37:27;;;;;;;4.00;3.60;;;19.50;99.90;;;;;;5075421;28;20548;-74
2021/07/08 01:39:57;;;;;;;4.20;3.90;;;19.40;99.90;;;;;;5074903;28;20849;-74
2021/07/08 01:42:24;;;;;;;3.70;3.40;;;19.40;99.90;;;;;;5074875;28;20448;-73
2021/07/08 01:44:51;;;;;;;4.43;4.13;;;19.40;99.90;;;;;;5074790;28;20455;-73
2021/07/08 01:47:18;;;;;;;4.50;3.80;;;19.40;99.90;;;;;;5074704;28;20578;-73
2021/07/08 01:49:45;;;;;;;4.37;3.80;;;19.40;99.90;;;;;;5075166;28;20983;-74
2021/07/08 01:52:12;;;;;;;4.10;3.80;;;19.40;99.90;;;;;;5074546;28;20866;-73
2021/07/08 01:54:39;;;;;;;4.63;4.23;;;19.40;99.90;;;;;;5074826;28;20542;-73
2021/07/08 01:57:08;;;;;;;4.23;3.83;;;19.40;99.90;;;;;;5074782;28;20469;-73
2021/07/08 01:59:34;;;;;;;5.50;4.50;;;19.40;99.90;;;;;;5075113;28;20453;-73
2021/07/08 02:02:01;;;;;;;5.90;5.40;;;19.50;99.90;;;;;;5074752;28;20442;-74
2021/07/08 02:04:28;;;;;;;5.57;5.07;;;19.40;99.90;;;;;;5074528;28;20456;-73
2021/07/08 02:06:55;;;;;;;5.80;5.30;;;19.40;99.90;;;;;;5074141;28;20478;-73
2021/07/08 02:09:22;;;;;;;7.03;5.40;;;19.20;99.90;;;;;;5074427;28;20537;-73
2021/07/08 02:11:49;;;;;;;5.23;4.73;;;19.10;99.90;;;;;;5074450;28;20540;-73
2021/07/08 02:14:17;;;;;;;5.60;5.07;;;19.10;99.90;;;;;;5074679;28;20887;-74
2021/07/08 02:16:44;;;;;;;5.40;4.90;;;19.10;99.90;;;;;;5074588;28;20716;-73
2021/07/08 02:19:11;;;;;;;5.97;4.93;;;19.10;99.90;;;;;;5074717;28;20469;-73
2021/07/08 02:21:38;;;;;;;4.65;4.15;;;19.00;99.90;;;;;;5074126;28;20533;-73
2021/07/08 02:24:05;;;;;;;4.27;3.97;;;19.00;99.90;;;;;;5074356;28;20309;-73
2021/07/08 02:26:32;;;;;;;4.22;3.92;;;19.00;99.90;;;;;;5074324;28;20559;-73
2021/07/08 02:28:59;;;;;;;3.90;3.60;;;19.00;99.90;;;;;;5074519;28;20222;-74
2021/07/08 02:31:27;;;;;;;3.90;3.60;;;19.10;99.90;;;;;;5073812;28;20212;-73
2021/07/08 02:33:54;;;;;;;4.40;4.03;;;19.10;99.90;;;;;;5073653;28;20443;-73
2021/07/08 02:36:21;;;;;;;4.32;4.03;;;19.00;99.90;;;;;;5074137;28;20305;-74
2021/07/08 02:38:47;;;;;;;4.90;3.83;;;18.90;99.90;;;;;;5074102;28;20276;-73
2021/07/08 02:41:15;;;;;;;5.13;3.97;;;19.00;99.90;;;;;;5073563;28;20290;-73
2021/07/08 02:43:42;;;;;;;4.10;3.78;;;19.00;99.90;;;;;;5073751;28;20448;-74
2021/07/08 02:46:09;;;;;;;4.40;4.00;;;19.00;99.90;;;;;;5073476;28;20724;-73
2021/07/08 02:48:37;;;;;;;3.83;3.50;;;19.00;99.90;;;;;;5073952;28;20560;-74
2021/07/08 02:51:04;;;;;;;4.20;3.70;;;18.90;99.90;;;;;;5073490;28;20492;-73
2021/07/08 02:53:31;;;;;;;4.07;3.67;;;19.00;99.90;;;;;;5073294;28;20442;-73
2021/07/08 02:55:58;;;;;;;3.88;3.58;;;19.00;99.90;;;;;;5073994;28;20291;-73
2021/07/08 02:58:25;;;;;;;4.10;3.80;;;19.00;99.90;;;;;;5074009;28;20224;-73
2021/07/08 03:00:52;;;;;;;4.30;3.55;;;19.00;99.90;;;;;;5073535;28;20533;-73
2021/07/08 03:03:19;;;;;;;4.13;3.70;;;19.00;99.90;;;;;;5073778;28;20205;-74
2021/07/08 03:05:47;;;;;;;4.82;4.35;;;18.90;99.90;;;;;;5073744;28;20242;-74
2021/07/08 03:08:14;;;;;;;4.07;3.58;;;18.80;99.90;;;;;;5073850;28;20238;-73
2021/07/08 03:10:40;;;;;;;6.15;4.10;;;18.70;99.90;;;;;;5073794;28;20299;-74
2021/07/08 03:13:08;;;;;;;3.90;3.60;;;18.60;99.90;;;;;;5073424;28;20209;-74
2021/07/08 03:15:34;;;;;;;6.10;4.05;;;18.50;99.90;;;;;;5073599;28;20557;-74
2021/07/08 03:18:01;;;;;;;4.07;3.78;;;18.60;99.90;;;;;;5074061;28;20214;-74
2021/07/08 03:20:30;;;;;;;3.55;3.35;;;18.70;99.90;;;;;;5073376;28;20203;-73
2021/07/08 03:22:59;;;;;;;3.70;3.17;;;18.80;99.90;;;;;;5073643;28;20235;-73
2021/07/08 03:25:26;;;;;;;3.15;2.95;;;18.80;99.90;;;;;;5073785;28;20290;-74
2021/07/08 03:27:55;;;;;;;6.10;4.63;;;18.80;99.90;;;;;;5072924;28;20390;-73
2021/07/08 03:30:24;;;;;;;3.90;3.60;;;18.80;99.90;;;;;;5072833;28;20551;-73
2021/07/08 03:32:52;;;;;;;5.05;3.70;;;18.80;99.90;;;;;;5073544;28;20199;-73
2021/07/08 03:35:19;;;;;;;3.87;3.57;;;18.70;99.90;;;;;;5073613;28;20557;-73
2021/07/08 03:37:46;;;;;;;4.68;4.25;;;18.70;99.90;;;;;;5073262;28;21035;-73
2021/07/08 03:40:16;;;;;;;3.60;3.30;;;18.80;99.90;;;;;;5073540;28;20689;-73
2021/07/08 03:42:44;;;;;;;5.13;3.60;;;18.80;99.90;;;;;;5073125;28;20213;-73
2021/07/08 03:45:12;;;;;;;5.30;4.10;;;18.90;99.90;;;;;;5073573;28;20495;-73
2021/07/08 03:47:40;;;;;;;4.40;4.00;;;18.90;99.90;;;;;;5073299;28;20568;-73
2021/07/08 03:50:10;;;;;;;4.30;3.90;;;18.80;99.90;;;;;;5073445;28;20481;-74
2021/07/08 03:52:39;;;;;;;3.90;3.60;;;18.60;99.90;;;;;;5073524;28;20200;-74
2021/07/08 03:55:07;;;;;;;4.32;3.65;;;18.40;99.90;;;;;;5073198;28;20206;-74
2021/07/08 03:57:35;;;;;;;3.97;3.65;;;18.40;99.90;;;;;;5072990;28;20226;-73
2021/07/08 04:00:04;;;;;;;7.25;4.18;;;18.30;99.90;;;;;;5072993;28;20203;-73
2021/07/08 04:02:31;;;;;;;4.30;4.00;;;18.40;99.90;;;;;;5073322;28;20658;-74
2021/07/08 04:04:58;;;;;;;3.70;3.38;;;18.50;99.90;;;;;;5074402;28;20203;-73
2021/07/08 04:07:25;;;;;;;4.30;3.90;;;18.50;99.90;;;;;;5076384;28;20226;-73
2021/07/08 04:09:52;;;;;;;4.85;4.20;;;18.50;99.90;;;;;;5076610;28;20227;-74
2021/07/08 04:12:19;;;;;;;4.43;3.78;;;18.60;99.90;;;;;;5076410;28;20668;-73
2021/07/08 04:14:47;;;;;;;4.78;4.35;;;18.60;99.90;;;;;;5076727;28;20241;-73
2021/07/08 04:17:14;;;;;;;6.32;4.05;;;18.60;99.90;;;;;;5076681;28;20787;-73
2021/07/08 04:19:40;;;;;;;4.75;4.35;;;18.70;99.90;;;;;;5076914;28;20234;-73
2021/07/08 04:22:07;;;;;;;4.68;3.83;;;18.70;99.90;;;;;;5076351;28;20290;-73
2021/07/08 04:24:34;;;;;;;5.53;5.03;;;18.60;99.90;;;;;;5076356;28;20297;-74
2021/07/08 04:27:01;;;;;;;4.40;4.10;;;18.50;99.90;;;;;;5076441;28;20223;-73
2021/07/08 04:29:28;;;;;;;5.18;4.32;;;18.60;99.90;;;;;;5076218;28;20302;-73
2021/07/08 04:31:56;;;;;;;4.72;4.32;;;18.60;99.90;;;;;;5076561;28;20586;-73
2021/07/08 04:34:22;;;;;;;5.03;4.63;;;18.60;99.90;;;;;;5076175;28;20290;-73
2021/07/08 04:36:49;;;;;;;5.00;4.60;;;18.50;99.90;;;;;;5076335;28;20215;-73
2021/07/08 04:39:16;;;;;;;5.80;5.30;;;18.50;99.90;;;;;;5076277;28;20235;-74
2021/07/08 04:41:43;;;;;;;5.35;4.80;;;18.50;99.90;;;;;;5076239;28;20198;-73
2021/07/08 04:44:11;;;;;;;5.78;4.82;;;18.50;99.90;;;;;;5076353;28;20293;-73
2021/07/08 04:46:38;;;;;;;5.80;4.78;;;18.60;99.90;;;;;;5075943;28;20635;-73
2021/07/08 04:49:07;;;;;;;6.50;5.75;;;18.60;99.90;;;;;;5075753;28;20226;-73
2021/07/08 04:51:34;;;;;;;6.45;5.85;;;18.50;99.90;;;;;;5075877;28;20209;-73
2021/07/08 04:54:00;;;;;;;6.18;5.68;;;18.50;99.90;;;;;;5075953;28;20685;-74
2021/07/08 04:56:27;;;;;;;6.20;5.70;;;18.50;99.90;;;;;;5076025;28;20207;-73
2021/07/08 04:58:54;;;;;;;5.95;5.43;;;18.50;99.90;;;;;;5076381;28;20341;-73
2021/07/08 05:01:21;;;;;;;6.40;5.90;;;18.50;99.90;;;;;;5075477;28;20235;-73
2021/07/08 05:03:47;;;;;;;7.20;6.30;;;18.50;99.90;;;;;;5075549;28;20214;-73
2021/07/08 05:06:16;;;;;;;7.13;6.43;;;18.40;99.90;;;;;;5075757;28;20655;-73
2021/07/08 05:08:42;;;;;;;8.15;6.65;;;18.40;99.90;;;;;;5076184;28;20313;-74
2021/07/08 05:11:09;;;;;;;7.78;7.10;;;18.30;99.90;;;;;;5075135;28;20239;-73
2021/07/08 05:13:36;;;;;;;7.75;6.90;;;18.30;99.90;;;;;;5075434;28;20285;-73
2021/07/08 05:16:03;;;;;;;8.27;5.78;;;18.40;99.90;;;;;;5075542;28;20297;-74
2021/07/08 05:18:30;;;;;;;6.63;6.05;;;18.40;99.90;;;;;;5075289;28;20250;-73
2021/07/08 05:20:57;;;;;;;9.18;6.95;;;18.50;99.90;;;;;;5075398;28;20209;-73
2021/07/08 05:23:27;;;;;;;7.05;6.35;;;18.60;99.90;;;;;;5075616;28;20603;-73
2021/07/08 05:25:54;;;;;;;7.35;6.65;;;18.60;99.90;;;;;;5075588;28;20206;-73
2021/07/08 05:28:21;;;;;;;6.63;6.03;;;18.50;99.90;;;;;;5075042;28;20241;-73
2021/07/08 05:30:48;;;;;;;8.07;6.82;;;18.60;99.90;;;;;;5074805;28;20239;-73
2021/07/08 05:33:15;;;;;;;7.30;6.60;;;18.80;99.90;;;;;;5075147;28;20214;-74
2021/07/08 05:35:42;;;;;;;7.40;6.70;;;18.80;99.90;;;;;;5075315;28;20532;-73
2021/07/08 05:38:08;;;;;;;7.22;6.53;;;18.80;99.90;;;;;;5075164;28;20709;-73
2021/07/08 05:40:37;;;;;;;6.97;6.27;;;18.80;99.90;;;;;;5075207;28;20249;-73
2021/07/08 05:43:05;;;;;;;6.63;6.03;;;18.90;99.90;;;;;;5075309;28;20447;-73
2021/07/08 05:45:32;;;;;;;6.15;5.13;;;19.10;99.90;;;;;;5074719;28;20210;-73
2021/07/08 05:47:58;;;;;;;6.13;5.32;;;19.10;99.90;;;;;;5075021;28;20227;-73
2021/07/08 05:50:25;;;;;;;6.00;5.40;;;19.20;99.90;;;;;;5074521;28;20577;-73
2021/07/08 05:52:52;;;;;;;10.07;8.60;;;19.20;99.90;;;;;;5075038;28;20547;-73
2021/07/08 05:55:19;;;;;;;10.00;7.85;;;19.20;99.90;;;;;;5075006;28;20447;-73
2021/07/08 05:57:48;;;;;;;5.63;5.10;;;19.20;99.90;;;;;;5074449;28;20683;-73
2021/07/08 06:00:17;;;;;;;5.40;4.43;;;19.20;99.90;;;;;;5074460;28;20457;-73
2021/07/08 06:02:44;;;;;;;5.07;4.68;;;19.30;99.90;;;;;;5074605;28;20526;-73
2021/07/08 06:05:12;;;;;;;5.25;4.75;;;19.40;99.90;;;;;;5074398;28;20203;-73
2021/07/08 06:07:39;;;;;;;5.33;4.83;;;19.40;99.90;;;;;;5074618;28;20260;-73
2021/07/08 06:10:07;;;;;;;4.15;3.85;;;19.40;99.90;;;;;;5074564;28;20532;-73
2021/07/08 06:12:35;;;;;;;5.53;4.67;;;19.30;99.90;;;;;;5074364;28;20576;-73
2021/07/08 06:15:04;;;;;;;5.35;4.85;;;19.10;99.90;;;;;;5074436;28;20533;-73
2021/07/08 06:17:31;;;;;;;5.25;4.75;;;19.00;99.90;;;;;;5074158;28;20580;-73
2021/07/08 06:19:58;;;;;;;5.10;4.57;;;18.90;99.90;;;;;;5074501;28;20207;-73
2021/07/08 06:22:25;;;;;;;6.28;4.65;;;18.80;99.90;;;;;;5074022;28;20289;-73
2021/07/08 06:24:52;;;;;;;5.75;5.32;;;18.70;99.90;;;;;;5074038;28;20209;-73
2021/07/08 06:27:18;;;;;;;6.63;6.03;;;18.60;99.90;;;;;;5073947;28;20313;-73
2021/07/08 06:29:45;;;;;;;5.97;5.45;;;18.50;99.90;;;;;;5073797;28;20305;-73
2021/07/08 06:32:17;;;;;;;6.45;5.50;;;18.50;99.90;;;;;;5074107;28;20408;-74
2021/07/08 06:34:44;;;;;;;6.55;5.90;;;18.50;99.90;;;;;;5074357;28;20202;-74
2021/07/08 06:37:11;;;;;;;6.38;5.78;;;18.60;99.90;;;;;;5074332;28;20199;-74
2021/07/08 06:39:38;;;;;;;6.00;5.43;;;18.70;99.90;;;;;;5073751;28;20294;-74
2021/07/08 06:42:05;;;;;;;6.75;5.38;;;18.80;99.90;;;;;;5073894;28;20206;-74
2021/07/08 06:44:32;;;;;;;6.50;5.90;;;18.80;99.90;;;;;;5073936;28;20290;-74
2021/07/08 06:46:59;;;;;;;7.30;5.83;;;18.90;99.90;;;;;;5074006;28;20205;-74
2021/07/08 06:49:28;;;;;;;6.40;5.80;;;19.00;99.90;;;;;;5074447;28;20476;-74
2021/07/08 06:51:55;;;;;;;7.10;5.57;;;19.20;99.90;;;;;;5073370;28;20464;-74
2021/07/08 06:54:21;;;;;;;8.30;4.90;;;19.30;99.90;;;;;;5073594;28;20939;-74
2021/07/08 06:56:48;;;;;;;7.47;5.03;;;19.30;99.90;;;;;;5073707;28;20537;-74
2021/07/08 06:59:15;;;;;;;9.67;5.17;;;19.40;99.90;;;;;;5074108;28;20476;-74
2021/07/08 07:01:42;;;;;;;5.40;5.00;;;19.40;99.90;;;;;;5073733;28;20542;-74
2021/07/08 07:04:09;;;;;;;4.60;4.17;;;19.30;99.90;;;;;;5073423;28;20483;-75
2021/07/08 07:06:37;;;;;;;6.40;4.70;;;19.30;99.90;;;;;;5073314;28;20912;-74
2021/07/08 07:09:04;;;;;;;5.40;4.90;;;19.40;99.90;;;;;;5073661;28;20496;-74
2021/07/08 07:11:30;;;;;;;5.07;4.63;;;19.40;99.90;;;;;;5073595;28;20441;-74
2021/07/08 07:13:57;;;;;;;6.10;5.10;;;19.30;99.90;;;;;;5073787;28;20483;-74
2021/07/08 07:16:24;;;;;;;5.67;4.70;;;19.20;99.90;;;;;;5073899;28;20464;-74
2021/07/08 07:18:51;;;;;;;5.70;5.20;;;19.20;99.90;;;;;;5073255;28;20544;-74
2021/07/08 07:21:18;;;;;;;5.60;5.10;;;19.10;99.90;;;;;;5073107;28;20294;-74
2021/07/08 07:23:46;;;;;;;5.70;5.20;;;19.10;99.90;;;;;;5073408;28;20482;-74
2021/07/08 07:26:16;;;;;;;5.47;4.97;;;19.10;99.90;;;;;;5073689;28;20444;-74
2021/07/08 07:28:43;;;;;;;5.20;4.80;;;19.10;99.90;;;;;;5073809;28;20572;-74
2021/07/08 07:31:09;;;;;;;5.70;5.17;;;19.30;99.90;;;;;;5073144;28;20869;-74
2021/07/08 07:33:36;;;;;;;5.73;5.20;;;19.50;99.90;;;;;;5073315;28;20453;-74
2021/07/08 07:36:04;;;;;;;7.57;4.73;;;19.60;99.90;;;;;;5073193;28;20530;-74
2021/07/08 07:38:32;;;;;;;5.47;4.97;;;19.60;99.90;;;;;;5073594;28;20457;-74
2021/07/08 07:41:00;;;;;;;5.47;4.70;;;19.50;99.90;;;;;;5075559;28;20463;-74
2021/07/08 07:43:27;;;;;;;7.57;5.20;;;19.60;99.90;;;;;;5077626;28;20491;-74
2021/07/08 07:45:54;;;;;;;8.13;5.00;;;19.60;99.90;;;;;;5077590;28;20835;-75
2021/07/08 07:48:21;;;;;;;5.20;4.70;;;19.80;99.90;;;;;;5077168;28;20490;-74
2021/07/08 07:50:48;;;;;;;6.17;5.00;;;19.90;99.90;;;;;;5076919;28;20481;-74
2021/07/08 07:53:14;;;;;;;4.80;4.40;;;19.90;99.90;;;;;;5077268;28;20439;-74
2021/07/08 07:55:41;;;;;;;5.00;4.50;;;19.90;99.90;;;;;;5077277;28;20475;-74
2021/07/08 07:58:10;;;;;;;7.13;4.93;;;19.90;99.90;;;;;;5077418;28;20491;-74
2021/07/08 08:00:36;;;;;;;5.43;5.03;;;20.00;99.90;;;;;;5076984;28;20452;-74
2021/07/08 08:03:05;;;;;;;5.60;5.03;;;20.20;99.90;;;;;;5076674;28;20452;-74
2021/07/08 08:05:36;;;;;;;5.87;5.37;;;20.30;99.90;;;;;;5076914;28;20778;-74
2021/07/08 08:10:50;;;;;;;5.93;4.73;;;20.20;99.90;;;;;;5076766;28;20875;-75
2021/07/08 08:13:19;;;;;;;6.73;4.73;;;20.30;99.90;;;;;;5076435;28;20443;-74
2021/07/08 08:15:45;;;;;;;5.20;4.80;;;20.20;99.90;;;;;;5076805;28;20467;-74
2021/07/08 08:18:12;;;;;;;5.47;5.07;;;20.20;99.90;;;;;;5076905;28;20524;-74
2021/07/08 08:20:39;;;;;;;6.90;6.30;;;20.30;99.90;;;;;;5076264;28;20451;-74
2021/07/08 08:23:06;;;;;;;6.17;5.60;;;20.20;99.90;;;;;;5076857;28;20451;-77
2021/07/08 08:25:33;;;;;;;7.03;6.33;;;20.30;99.90;;;;;;5076833;28;20818;-73
2021/07/08 08:28:00;;;;;;;7.17;6.37;;;20.40;99.90;;;;;;5076470;28;20486;-73
2021/07/08 08:30:29;;;;;;;8.10;6.80;;;20.50;99.90;;;;;;5075854;28;20822;-74
2021/07/08 08:32:55;;;;;;;6.90;6.30;;;20.70;99.90;;;;;;5078908;28;20434;-74
2021/07/08 08:35:23;;;;;;;7.13;6.30;;;20.90;99.90;;;;;;5084176;28;20524;-74
2021/07/08 08:37:50;;;;;;;6.00;5.50;;;21.20;99.90;;;;;;5086234;28;20457;-75
2021/07/08 08:40:17;;;;;;;4.93;4.53;;;21.30;99.90;;;;;;5081272;28;20779;-74
2021/07/08 08:42:45;;;;;;;5.23;4.73;;;21.40;99.90;;;;;;5076249;28;20540;-74
2021/07/08 08:45:17;;;;;;;5.13;4.60;;;21.50;99.90;;;;;;5076310;28;20535;-74
2021/07/08 08:47:57;;;;;;;5.27;4.03;;;21.40;99.90;;;;;;5076556;28;20556;-74
2021/07/08 08:50:24;;;;;;;3.83;3.53;;;21.70;99.90;;;;;;5076382;28;20432;-75
2021/07/08 08:52:51;;;;;;;3.90;3.60;;;21.70;99.90;;;;;;5074816;28;20528;-75
2021/07/08 08:55:18;;;;;;;4.07;3.77;;;22.00;99.90;;;;;;5076010;28;20843;-74
2021/07/08 08:57:46;;;;;;;4.00;3.60;;;22.40;99.90;;;;;;5076023;28;20464;-74
2021/07/08 09:00:46;;;;;;;3.77;3.47;;;22.50;99.90;;;;;;5075637;28;20446;-74
2021/07/08 09:03:16;;;;;;;5.97;5.57;;;22.60;99.90;;;;;;5075784;28;20439;-75
2021/07/08 09:05:46;;;;;;;5.37;4.97;;;22.70;99.90;;;;;;5075888;28;20520;-75
2021/07/08 09:08:21;;;;;;;5.40;4.90;;;22.80;99.90;;;;;;5075968;28;20807;-74
2021/07/08 09:11:05;;;;;;;5.43;4.90;;;22.80;99.90;;;;;;5075508;28;20804;-75
2021/07/08 09:13:46;;;;;;;6.00;5.40;;;22.70;99.90;;;;;;5075951;28;20484;-75
2021/07/08 09:16:14;;;;;;;6.33;5.83;;;22.60;99.90;;;;;;5075500;28;20532;-75
2021/07/08 09:18:43;;;;;;;6.40;5.80;;;22.40;99.90;;;;;;5075816;28;20548;-74
2021/07/08 09:21:16;;;;;;;6.87;6.17;;;22.20;99.90;;;;;;5075144;28;20527;-75
2021/07/08 09:24:19;;;;;;;6.33;5.77;;;22.10;99.90;;;;;;5075823;28;20507;-76
2021/07/08 09:26:54;;;;;;;4.97;4.57;;;22.10;99.90;;;;;;5068639;28;20535;-75
2021/07/08 09:29:22;;;;;;;10.53;5.23;;;22.20;99.90;;;;;;5075349;28;20480;-75
2021/07/08 09:31:53;;;;;;;6.20;5.60;;;22.20;99.90;;;;;;5075435;28;20457;-75
2021/07/08 09:34:23;;;;;;;5.40;5.00;;;22.20;99.90;;;;;;5075521;28;20532;-74
2021/07/08 09:37:04;;;;;;;6.80;6.20;;;22.20;99.90;;;;;;5074992;28;21022;-74
2021/07/08 09:39:32;;;;;;;6.10;5.60;;;22.10;99.90;;;;;;5075135;28;20520;-75
2021/07/08 09:41:59;;;;;;;5.27;4.77;;;22.00;99.90;;;;;;5075076;28;20452;-74
2021/07/08 09:44:28;;;;;;;5.17;4.77;;;22.00;99.90;;;;;;5075346;28;20480;-74
2021/07/08 09:46:56;;;;;;;5.50;5.00;;;22.20;99.90;;;;;;5074747;28;20548;-74
2021/07/08 09:49:26;;;;;;;5.13;4.40;;;22.20;99.90;;;;;;5074985;28;20572;-74
2021/07/08 09:51:54;;;;;;;5.00;4.60;;;22.30;99.90;;;;;;5074572;28;20447;-74
2021/07/08 09:54:44;;;;;;;4.53;4.20;;;22.40;99.90;;;;;;5074676;28;20451;-74
2021/07/08 09:57:34;;;;;;;4.27;3.97;;;22.20;99.90;;;;;;5074566;28;20444;-74
2021/07/08 10:00:02;;;;;;;3.80;3.50;;;22.30;99.90;;;;;;5074437;28;20775;-75
2021/07/08 10:02:31;;;;;;;3.83;3.50;;;22.30;99.90;;;;;;5074031;28;20440;-74
2021/07/08 10:05:00;;;;;;;4.43;4.03;;;22.20;99.90;;;;;;5074881;28;20823;-74
2021/07/08 10:07:27;;;;;;;5.33;4.23;;;22.30;99.90;;;;;;5074308;28;20465;-74
2021/07/08 10:09:54;;;;;;;3.67;3.37;;;22.30;99.90;;;;;;5073940;28;20465;-74
2021/07/08 10:12:23;;;;;;;3.60;3.30;;;22.20;99.90;;;;;;5074901;28;20540;-74
2021/07/08 10:14:51;;;;;;;3.87;3.57;;;22.40;99.90;;;;;;5074286;28;20522;-74
2021/07/08 10:17:20;;;;;;;4.10;3.37;;;22.30;99.90;;;;;;5074339;28;20534;-75
2021/07/08 10:19:48;;;;;;;3.97;3.60;;;22.40;99.90;;;;;;5074891;28;20448;-75
2021/07/08 10:22:16;;;;;;;3.50;3.20;;;22.50;99.90;;;;;;5074576;28;20477;-74
2021/07/08 10:24:43;;;;;;;3.63;3.33;;;22.50;99.90;;;;;;5074018;28;20449;-75
2021/07/08 10:27:11;;;;;;;3.43;3.13;;;22.50;99.90;;;;;;5074202;28;20441;-74
2021/07/08 10:29:39;;;;;;;3.57;3.27;;;22.70;99.90;;;;;;5073983;28;20576;-75
2021/07/08 10:32:08;;;;;;;3.20;3.00;;;22.80;99.90;;;;;;5074277;28;20442;-75
2021/07/08 10:34:44;;;;;;;3.30;3.00;;;22.90;99.90;;;;;;5074410;28;20444;-75
2021/07/08 10:37:13;;;;;;;3.00;2.80;;;23.00;99.90;;;;;;5073725;28;20544;-75
2021/07/08 10:39:42;;;;;;;3.30;3.00;;;23.10;99.90;;;;;;5074249;28;20800;-75
2021/07/08 10:42:09;;;;;;;3.37;3.17;;;23.30;99.90;;;;;;5073856;28;20920;-75
2021/07/08 10:44:54;;;;;;;3.10;2.90;;;23.10;99.90;;;;;;5074220;28;20456;-74
2021/07/08 10:47:39;;;;;;;3.83;3.40;;;23.10;99.90;;;;;;5073795;28;20471;-74
2021/07/08 10:50:34;;;;;;;3.43;3.13;;;23.10;99.90;;;;;;5072500;28;20477;-75
2021/07/08 10:53:22;;;;;;;3.07;2.87;;;23.10;99.90;;;;;;5074157;28;20434;-75
2021/07/08 10:55:56;;;;;;;13.73;11.97;;;23.10;99.90;;;;;;5073573;28;20430;-75
2021/07/08 10:58:42;;;;;;;17.70;14.67;;;23.10;99.90;;;;;;5073975;28;20472;-75
2021/07/08 11:01:11;;;;;;;5.47;4.90;;;23.10;99.90;;;;;;5073424;28;20942;-75
2021/07/08 11:03:43;;;;;;;3.67;3.37;;;23.00;99.90;;;;;;5074056;28;20477;-75
2021/07/08 11:06:19;;;;;;;2.00;1.90;;;22.90;99.90;;;;;;5073594;28;20861;-75
2021/07/08 11:09:00;;;;;;;2.13;2.03;;;22.90;99.90;;;;;;5073458;28;20492;-75
2021/07/08 11:12:03;;;;;;;2.50;2.30;;;22.90;99.90;;;;;;5074068;28;20450;-75
2021/07/08 11:14:39;;;;;;;2.20;2.10;;;22.80;99.90;;;;;;5072869;28;20445;-75
2021/07/08 11:17:21;;;;;;;2.10;2.00;;;22.80;99.90;;;;;;5073375;28;20467;-75
2021/07/08 11:19:49;;;;;;;1.90;1.67;;;22.70;99.90;;;;;;5073695;28;20434;-74
2021/07/08 11:22:37;;;;;;;2.80;1.83;;;22.70;99.90;;;;;;5073910;28;20469;-75
2021/07/08 11:25:07;;;;;;;2.13;1.93;;;22.70;99.90;;;;;;5073529;28;20457;-75
2021/07/08 11:27:39;;;;;;;2.40;2.20;;;22.70;99.90;;;;;;5073514;28;20476;-75
2021/07/08 11:30:30;;;;;;;2.67;2.47;;;22.60;99.90;;;;;;5072845;28;20578;-75
2021/07/08 11:33:01;;;;;;;2.30;2.20;;;22.70;99.90;;;;;;5068673;28;20552;-74
2021/07/08 11:35:32;;;;;;;2.53;2.33;;;22.70;99.90;;;;;;5073371;28;20445;-75
2021/07/08 11:38:01;;;;;;;2.80;2.60;;;22.70;99.90;;;;;;5073661;28;20552;-75
2021/07/08 11:40:33;;;;;;;2.20;2.10;;;22.80;99.90;;;;;;5073194;28;20505;-75
2021/07/08 11:43:12;;;;;;;2.60;2.40;;;22.80;99.90;;;;;;5073619;28;20473;-75
2021/07/08 11:45:39;;;;;;;3.57;2.43;;;22.80;99.90;;;;;;5073670;28;20528;-75
2021/07/08 11:48:06;;;;;;;2.90;2.10;;;22.80;99.90;;;;;;5073029;28;20462;-75
2021/07/08 11:50:35;;;;;;;3.13;2.90;;;23.00;99.90;;;;;;5073111;28;20577;-75
2021/07/08 11:53:07;;;;;;;3.57;3.27;;;22.80;99.90;;;;;;5073305;28;20872;-75
2021/07/08 11:55:35;;;;;;;3.00;2.60;;;22.80;99.90;;;;;;5073438;28;20939;-74
2021/07/08 11:58:04;;;;;;;3.00;2.70;;;22.80;99.90;;;;;;5073099;28;20906;-74
2021/07/08 12:00:37;;;;;;;3.17;2.97;;;22.80;99.90;;;;;;5072811;28;20442;-75
2021/07/08 12:03:19;;;;;;;3.03;2.83;;;22.90;99.90;;;;;;5073319;28;20449;-75
2021/07/08 12:05:46;;;;;;;3.13;2.93;;;22.90;99.90;;;;;;5073009;28;20447;-75
2021/07/08 12:08:24;;;;;;;2.87;2.63;;;22.90;99.90;;;;;;5072815;28;20461;-75
2021/07/08 12:10:56;;;;;;;2.83;2.63;;;22.90;99.90;;;;;;5072768;28;20482;-75
2021/07/08 12:13:25;;;;;;;3.10;2.80;;;22.90;99.90;;;;;;5072985;28;20920;-75
2021/07/08 12:15:52;;;;;;;2.67;2.57;;;22.80;99.90;;;;;;5073171;28;20799;-75
2021/07/08 12:18:19;;;;;;;2.97;2.77;;;22.70;99.90;;;;;;5073154;28;20566;-75
2021/07/08 12:20:48;;;;;;;2.83;2.63;;;22.50;99.90;;;;;;5073071;28;20797;-75
2021/07/08 12:23:16;;;;;;;2.77;2.57;;;22.20;99.90;;;;;;5072920;28;20503;-74
2021/07/08 12:25:43;;;;;;;2.70;2.60;;;21.70;99.90;;;;;;5073381;28;20470;-74
2021/07/08 12:28:10;;;;;;;3.17;2.97;;;21.70;99.90;;;;;;5076734;28;20467;-75
2021/07/08 12:30:38;;;;;;;6.37;3.10;;;21.60;99.90;;;;;;5075837;28;20482;-74
2021/07/08 12:33:07;;;;;;;2.97;2.77;;;21.60;99.90;;;;;;5076627;28;20864;-74
2021/07/08 12:35:42;;;;;;;2.80;2.60;;;21.70;99.90;;;;;;5076653;28;20449;-74
2021/07/08 12:38:09;;;;;;;2.73;2.53;;;21.50;99.90;;;;;;5076433;28;20472;-74
2021/07/08 12:40:37;;;;;;;2.83;2.53;;;21.40;99.90;;;;;;5075997;28;20811;-75
2021/07/08 12:43:11;;;;;;;3.00;2.80;;;21.40;99.90;;;;;;5076309;28;21028;-74
2021/07/08 12:45:40;;;;;;;3.60;2.90;;;21.30;99.90;;;;;;5076555;28;20524;-74
2021/07/08 12:48:12;;;;;;;2.77;2.57;;;21.30;99.90;;;;;;5076114;28;20496;-75
2021/07/08 12:50:42;;;;;;;2.57;2.37;;;21.40;99.90;;;;;;5075911;28;20476;-74
2021/07/08 12:53:11;;;;;;;4.13;3.73;;;21.40;99.90;;;;;;5076193;28;20440;-74
2021/07/08 12:55:43;;;;;;;3.70;2.60;;;21.50;99.90;;;;;;5075888;28;20444;-74
2021/07/08 12:58:14;;;;;;;3.20;2.37;;;21.50;99.90;;;;;;5076188;28;20783;-75